Time;durP1;ratioP1;P1;durP2;ratioP2;P2;SDS_P1;SDS_P2;PMS_P1;PMS_P2;Temp;Humidity;BMP_temperature;BMP_pressure;BME280_temperature;BME280_humidity;BME280_pressure;Samples;Min_cycle;Max_cycle;Signal;HPM_P1;HPM_P2
2022/06/02 00:01:26;;;;;;;7.43;3.97;;;16.40;99.90;;;;;;5077500;28;20197;-73
2022/06/02 00:04:02;;;;;;;6.30;4.90;;;16.30;99.90;;;;;;5075597;28;20763;-72
2022/06/02 00:06:44;;;;;;;4.63;4.23;;;16.30;99.90;;;;;;5067319;28;20214;-72
2022/06/02 00:09:25;;;;;;;6.90;4.97;;;16.20;99.90;;;;;;5070725;28;20223;-71
2022/06/02 00:12:06;;;;;;;6.60;4.60;;;16.20;99.90;;;;;;5075436;28;20208;-72
2022/06/02 00:14:42;;;;;;;4.97;4.43;;;16.10;99.90;;;;;;5077168;28;20204;-71
2022/06/02 00:17:22;;;;;;;8.73;4.80;;;16.10;99.90;;;;;;5049540;28;20205;-71
2022/06/02 00:20:00;;;;;;;5.43;4.80;;;16.10;99.90;;;;;;5042593;28;20238;-72
2022/06/02 00:22:35;;;;;;;4.73;4.23;;;16.00;99.90;;;;;;5033485;28;20248;-72
2022/06/02 00:25:08;;;;;;;5.80;4.73;;;15.90;99.90;;;;;;5039749;28;20535;-71
2022/06/02 00:27:44;;;;;;;5.47;4.97;;;15.90;99.90;;;;;;5041117;28;20282;-72
2022/06/02 00:30:20;;;;;;;5.33;4.40;;;15.80;99.90;;;;;;5054710;28;20257;-71
2022/06/02 00:32:56;;;;;;;4.87;4.20;;;15.80;99.90;;;;;;5040092;28;20309;-71
2022/06/02 00:35:30;;;;;;;6.40;4.70;;;15.80;99.90;;;;;;5036391;28;20293;-72
2022/06/02 00:38:07;;;;;;;5.90;4.20;;;15.80;99.90;;;;;;5035926;28;20730;-71
2022/06/02 00:40:36;;;;;;;6.20;4.50;;;15.80;99.90;;;;;;5037448;28;20207;-71
2022/06/02 00:43:20;;;;;;;5.10;4.60;;;15.80;99.90;;;;;;5030130;28;20211;-72
2022/06/02 00:45:50;;;;;;;4.87;3.73;;;15.80;99.90;;;;;;5032811;28;20222;-71
2022/06/02 00:48:25;;;;;;;6.27;3.77;;;15.80;99.90;;;;;;5043890;28;20292;-72
2022/06/02 00:51:03;;;;;;;4.57;3.67;;;15.80;99.90;;;;;;5041872;28;20206;-71
2022/06/02 00:53:40;;;;;;;5.77;3.93;;;15.90;99.90;;;;;;5039516;28;20264;-72
2022/06/02 00:59:28;;;;;;;5.47;3.53;;;15.90;99.90;;;;;;5039791;28;20284;-71
2022/06/02 01:01:55;;;;;;;4.03;3.27;;;15.90;99.90;;;;;;5033974;28;20671;-71
2022/06/02 01:04:22;;;;;;;5.13;3.57;;;15.90;99.90;;;;;;5033004;28;20203;-71
2022/06/02 01:07:04;;;;;;;3.77;3.37;;;15.90;99.90;;;;;;5037166;28;20289;-71
2022/06/02 01:09:58;;;;;;;4.50;3.63;;;15.90;99.90;;;;;;5039526;28;20226;-71
2022/06/02 01:12:48;;;;;;;3.83;3.40;;;16.00;99.90;;;;;;5039064;28;20252;-72
2022/06/02 01:15:23;;;;;;;5.50;3.88;;;16.00;99.90;;;;;;5033388;28;20251;-72
2022/06/02 01:18:05;;;;;;;5.07;3.30;;;16.00;99.90;;;;;;5075590;28;20255;-71
2022/06/02 01:20:40;;;;;;;6.17;3.50;;;16.00;99.90;;;;;;5074015;28;20557;-71
2022/06/02 01:23:38;;;;;;;3.53;3.20;;;16.00;99.90;;;;;;5076130;28;20221;-71
2022/06/02 01:26:42;;;;;;;3.80;3.37;;;16.00;99.90;;;;;;5069485;28;20265;-71
2022/06/02 01:29:46;;;;;;;4.50;3.33;;;16.10;99.90;;;;;;5068835;28;20220;-71
2022/06/02 01:32:16;;;;;;;4.20;3.60;;;16.10;99.90;;;;;;5031762;28;20232;-71
2022/06/02 01:34:57;;;;;;;3.92;3.50;;;16.10;99.90;;;;;;5070153;28;20304;-70
2022/06/02 01:37:33;;;;;;;7.73;4.13;;;16.10;99.90;;;;;;5077813;28;20197;-71
2022/06/02 01:40:09;;;;;;;3.67;3.37;;;16.10;99.90;;;;;;5077684;28;20201;-71
2022/06/02 01:42:53;;;;;;;5.40;3.67;;;16.10;99.90;;;;;;5064888;28;20201;-70
2022/06/02 01:45:31;;;;;;;5.90;3.60;;;16.10;99.90;;;;;;5069624;28;20285;-71
2022/06/02 01:48:07;;;;;;;4.47;3.87;;;16.00;99.90;;;;;;5078138;28;20205;-71
2022/06/02 01:50:51;;;;;;;6.13;3.47;;;16.00;99.90;;;;;;5079684;28;20614;-72
2022/06/02 01:53:27;;;;;;;4.80;4.00;;;16.00;99.90;;;;;;5088963;28;20219;-71
2022/06/02 01:56:19;;;;;;;4.10;3.53;;;16.00;99.90;;;;;;5076215;28;20233;-71
2022/06/02 01:58:58;;;;;;;5.32;3.63;;;15.90;99.90;;;;;;5078185;28;20351;-71
2022/06/02 02:01:35;;;;;;;4.47;3.50;;;15.90;99.90;;;;;;5076607;28;20289;-71
2022/06/02 02:04:37;;;;;;;4.83;3.87;;;15.90;99.90;;;;;;5075670;28;20282;-71
2022/06/02 02:07:13;;;;;;;6.93;3.87;;;15.90;99.90;;;;;;5075897;28;20278;-71
2022/06/02 02:09:55;;;;;;;5.20;4.00;;;15.80;99.90;;;;;;5082733;28;20211;-71
2022/06/02 02:12:33;;;;;;;4.13;3.73;;;15.90;99.90;;;;;;5086047;28;20236;-71
2022/06/02 02:15:19;;;;;;;5.20;4.10;;;15.80;99.90;;;;;;5068351;28;20271;-71
2022/06/02 02:18:15;;;;;;;4.43;3.87;;;15.80;99.90;;;;;;5070963;28;20202;-71
2022/06/02 02:20:59;;;;;;;4.20;3.80;;;15.80;99.90;;;;;;5078082;28;20201;-71
2022/06/02 02:23:32;;;;;;;4.33;3.70;;;15.80;99.90;;;;;;5075976;28;20193;-72
2022/06/02 02:26:09;;;;;;;4.60;3.70;;;15.80;99.90;;;;;;5077678;28;20204;-71
2022/06/02 02:28:51;;;;;;;5.33;3.60;;;15.80;99.90;;;;;;5078609;28;20311;-71
2022/06/02 02:31:28;;;;;;;5.60;3.53;;;15.90;99.90;;;;;;5078640;28;20292;-71
2022/06/02 02:34:04;;;;;;;3.37;3.07;;;15.80;99.90;;;;;;5076280;28;20223;-71
2022/06/02 02:36:40;;;;;;;3.40;2.93;;;15.80;99.90;;;;;;5076926;28;20283;-71
2022/06/02 02:39:15;;;;;;;4.07;3.60;;;15.80;99.90;;;;;;5076821;28;20665;-71
2022/06/02 02:41:47;;;;;;;3.27;3.00;;;15.80;99.90;;;;;;5074840;28;20227;-72
2022/06/02 02:44:19;;;;;;;4.40;3.27;;;15.80;99.90;;;;;;5071381;28;20225;-70
2022/06/02 02:46:54;;;;;;;4.50;3.13;;;15.80;99.90;;;;;;5068135;28;20202;-70
2022/06/02 02:49:29;;;;;;;3.53;3.20;;;15.80;99.90;;;;;;5076617;28;20201;-70
2022/06/02 02:52:02;;;;;;;4.03;3.57;;;15.80;99.90;;;;;;5076533;28;20222;-71
2022/06/02 02:54:36;;;;;;;4.50;3.60;;;15.80;99.90;;;;;;5065041;28;20248;-72
2022/06/02 02:57:08;;;;;;;6.17;3.20;;;15.80;99.90;;;;;;5076390;28;20211;-71
2022/06/02 02:59:42;;;;;;;4.87;3.73;;;15.90;99.90;;;;;;5090629;28;20225;-71
2022/06/02 03:02:21;;;;;;;4.73;3.70;;;15.90;99.90;;;;;;5076241;28;20236;-71
2022/06/02 03:04:58;;;;;;;4.67;4.20;;;15.90;99.90;;;;;;5074464;28;20197;-71
2022/06/02 03:07:29;;;;;;;4.50;4.10;;;15.80;99.90;;;;;;5061831;28;20316;-71
2022/06/02 03:10:09;;;;;;;5.00;4.27;;;15.80;99.90;;;;;;5074768;28;20201;-71
2022/06/02 03:12:59;;;;;;;4.73;4.17;;;15.80;99.90;;;;;;5074282;28;20251;-71
2022/06/02 03:15:32;;;;;;;5.10;4.60;;;15.70;99.90;;;;;;5076219;28;20333;-71
2022/06/02 03:18:24;;;;;;;4.40;4.00;;;15.60;99.90;;;;;;5076464;28;20288;-72
2022/06/02 03:20:57;;;;;;;4.87;4.47;;;15.50;99.90;;;;;;5074647;28;20205;-71
2022/06/02 03:24:05;;;;;;;6.70;4.50;;;15.50;99.90;;;;;;5074414;28;20535;-71
2022/06/02 03:26:44;;;;;;;5.93;4.87;;;15.50;99.90;;;;;;5073470;28;20787;-72
2022/06/02 03:29:24;;;;;;;4.80;4.40;;;15.40;99.90;;;;;;5076553;28;20332;-71
2022/06/02 03:32:00;;;;;;;5.13;4.67;;;15.40;99.90;;;;;;5075955;28;20573;-71
2022/06/02 03:34:32;;;;;;;4.73;4.27;;;15.30;99.90;;;;;;5064203;28;20210;-72
2022/06/02 03:37:20;;;;;;;6.87;4.67;;;15.30;99.90;;;;;;5076403;28;20288;-71
2022/06/02 03:40:11;;;;;;;5.77;4.40;;;15.20;99.90;;;;;;5087003;28;20234;-70
2022/06/02 03:42:45;;;;;;;5.57;4.00;;;15.20;99.90;;;;;;5073991;28;20216;-71
2022/06/02 03:45:31;;;;;;;5.27;4.77;;;15.10;99.90;;;;;;5074418;28;20201;-71
2022/06/02 03:48:21;;;;;;;5.40;4.30;;;15.10;99.90;;;;;;5063663;28;20201;-72
2022/06/02 03:50:59;;;;;;;4.97;4.40;;;15.10;99.90;;;;;;5075980;28;20205;-72
2022/06/02 03:53:57;;;;;;;4.93;4.50;;;15.00;99.90;;;;;;5074663;28;20217;-71
2022/06/02 03:56:37;;;;;;;6.27;3.90;;;15.00;99.90;;;;;;5065550;28;20259;-72
2022/06/02 03:59:31;;;;;;;4.27;3.70;;;14.90;99.90;;;;;;5076289;28;20688;-72
2022/06/02 04:02:02;;;;;;;5.40;3.87;;;14.90;99.90;;;;;;5083966;28;20205;-71
2022/06/02 04:04:41;;;;;;;4.63;4.13;;;14.80;99.90;;;;;;5073225;28;20204;-71
2022/06/02 04:07:22;;;;;;;5.70;4.37;;;14.80;99.90;;;;;;5067752;28;20220;-71
2022/06/02 04:09:54;;;;;;;5.67;3.53;;;14.80;99.90;;;;;;5075996;28;20605;-71
2022/06/02 04:16:02;;;;;;;4.13;3.80;;;14.80;99.90;;;;;;5069852;28;20255;-71
2022/06/02 04:18:38;;;;;;;4.63;3.37;;;14.80;99.90;;;;;;5075570;28;20203;-71
2022/06/02 04:21:30;;;;;;;4.37;3.43;;;14.80;99.90;;;;;;5075216;28;20201;-71
2022/06/02 04:24:10;;;;;;;4.27;3.53;;;14.70;99.90;;;;;;5074748;28;20189;-71
2022/06/02 04:26:50;;;;;;;6.13;3.87;;;14.70;99.90;;;;;;5071416;28;20231;-71
2022/06/02 04:29:30;;;;;;;5.07;3.60;;;14.60;99.90;;;;;;5074236;28;20232;-71
2022/06/02 04:32:08;;;;;;;3.73;3.30;;;14.60;99.90;;;;;;5075501;28;20197;-71
2022/06/02 04:34:47;;;;;;;3.67;3.37;;;14.50;99.90;;;;;;5070777;28;20236;-72
2022/06/02 04:37:19;;;;;;;5.23;3.77;;;14.40;99.90;;;;;;5062308;28;20233;-72
2022/06/02 04:39:55;;;;;;;3.60;3.30;;;14.40;99.90;;;;;;5074335;28;20287;-71
2022/06/02 04:42:31;;;;;;;5.30;3.50;;;14.40;99.90;;;;;;5074337;28;20547;-71
2022/06/02 04:45:09;;;;;;;4.73;3.70;;;14.30;99.90;;;;;;5068183;28;20626;-72
2022/06/02 04:47:49;;;;;;;3.93;3.37;;;14.30;99.90;;;;;;5073073;28;20205;-71
2022/06/02 04:50:24;;;;;;;4.10;3.70;;;14.20;99.90;;;;;;5074968;28;20220;-71
2022/06/02 04:52:59;;;;;;;3.87;3.47;;;14.20;99.90;;;;;;5073848;28;20211;-71
2022/06/02 04:55:33;;;;;;;3.90;3.60;;;14.10;99.90;;;;;;5071755;28;20259;-71
2022/06/02 04:58:11;;;;;;;4.07;3.70;;;14.10;99.90;;;;;;5063653;28;20272;-70
2022/06/02 05:00:47;;;;;;;5.70;3.83;;;14.10;99.90;;;;;;5076128;28;20201;-71
2022/06/02 05:03:20;;;;;;;4.00;3.60;;;14.10;99.90;;;;;;5077404;28;20251;-72
2022/06/02 05:06:00;;;;;;;7.07;4.20;;;14.00;99.90;;;;;;5068142;28;20209;-71
2022/06/02 05:08:46;;;;;;;4.57;3.33;;;14.10;99.90;;;;;;5084809;28;20569;-71
2022/06/02 05:11:24;;;;;;;6.43;4.00;;;14.00;99.90;;;;;;5080526;28;20227;-71
2022/06/02 05:14:03;;;;;;;4.67;4.00;;;14.00;99.90;;;;;;5075223;28;20653;-71
2022/06/02 05:16:45;;;;;;;4.90;3.70;;;14.00;99.90;;;;;;5080890;28;20233;-72
2022/06/02 05:19:39;;;;;;;3.47;3.17;;;14.00;99.90;;;;;;5077812;28;20239;-71
2022/06/02 05:22:42;;;;;;;5.77;4.17;;;14.00;99.90;;;;;;5060405;28;20289;-70
2022/06/02 05:25:26;;;;;;;7.30;3.37;;;14.10;99.90;;;;;;5072122;28;20201;-71
2022/06/02 05:28:33;;;;;;;3.80;3.40;;;14.20;99.90;;;;;;5070457;28;20197;-71
2022/06/02 05:31:19;;;;;;;3.87;3.47;;;14.20;99.90;;;;;;5057437;28;20610;-70
2022/06/02 05:34:27;;;;;;;3.27;2.83;;;14.20;99.90;;;;;;5084405;28;20237;-71
2022/06/02 05:37:22;;;;;;;4.60;3.30;;;14.10;99.90;;;;;;5017613;28;20731;-70
2022/06/02 05:40:02;;;;;;;3.50;3.20;;;14.20;99.90;;;;;;5066618;28;20193;-71
2022/06/02 05:42:43;;;;;;;3.47;2.73;;;14.10;99.90;;;;;;5074579;28;20204;-71
2022/06/02 05:45:22;;;;;;;4.00;3.33;;;14.10;99.90;;;;;;5070757;28;20205;-69
2022/06/02 05:48:02;;;;;;;3.47;3.17;;;14.20;99.90;;;;;;5066790;28;20248;-71
2022/06/02 05:50:38;;;;;;;3.87;3.37;;;14.20;99.90;;;;;;5073168;28;20221;-71
2022/06/02 05:53:17;;;;;;;5.03;3.03;;;14.20;99.90;;;;;;5077891;28;20251;-71
2022/06/02 05:55:58;;;;;;;4.93;3.30;;;14.20;99.90;;;;;;5069037;28;20244;-71
2022/06/02 05:59:03;;;;;;;4.10;2.90;;;14.20;99.90;;;;;;5077500;28;20318;-71
2022/06/02 06:01:43;;;;;;;2.83;2.53;;;14.20;99.90;;;;;;5089210;28;20202;-73
2022/06/02 06:04:54;;;;;;;3.00;2.70;;;14.20;99.90;;;;;;5092492;28;20213;-72
2022/06/02 06:07:37;;;;;;;5.53;2.50;;;14.30;99.90;;;;;;5062353;28;20255;-73
2022/06/02 06:10:12;;;;;;;4.93;3.10;;;14.30;99.90;;;;;;5074988;28;20205;-73
2022/06/02 06:13:04;;;;;;;3.13;2.67;;;14.30;99.90;;;;;;5093792;28;20228;-71
2022/06/02 06:15:42;;;;;;;3.00;2.67;;;14.30;99.90;;;;;;5083177;28;20713;-72
2022/06/02 06:18:21;;;;;;;3.80;3.10;;;14.30;99.90;;;;;;5070092;28;20201;-72
2022/06/02 06:21:01;;;;;;;3.60;2.90;;;14.40;99.90;;;;;;5079066;28;20215;-72
2022/06/02 06:23:48;;;;;;;4.43;2.87;;;14.40;99.90;;;;;;5084386;28;20200;-72
2022/06/02 06:26:23;;;;;;;4.33;2.30;;;14.60;99.90;;;;;;5091611;28;20729;-72
2022/06/02 06:29:06;;;;;;;3.10;2.73;;;14.60;99.90;;;;;;5080819;28;20322;-73
2022/06/02 06:31:43;;;;;;;4.40;2.87;;;14.80;99.90;;;;;;5081778;28;20231;-72
2022/06/02 06:34:19;;;;;;;4.03;3.30;;;14.90;99.90;;;;;;5087071;28;20681;-70
2022/06/02 06:37:10;;;;;;;4.33;2.63;;;15.10;99.90;;;;;;5076161;28;20719;-72
2022/06/02 06:39:52;;;;;;;3.23;2.83;;;15.20;99.90;;;;;;5065378;28;20205;-72
2022/06/02 06:42:33;;;;;;;5.23;3.17;;;15.30;99.90;;;;;;5065418;28;20205;-71
2022/06/02 06:45:09;;;;;;;5.10;3.17;;;15.50;99.90;;;;;;5072386;28;20328;-71
2022/06/02 06:47:39;;;;;;;5.70;3.03;;;15.60;99.90;;;;;;5076430;28;20757;-68
2022/06/02 06:50:17;;;;;;;5.73;2.77;;;15.80;99.90;;;;;;5073981;28;20262;-71
2022/06/02 06:53:12;;;;;;;3.87;2.90;;;15.90;99.90;;;;;;5075409;28;20292;-70
2022/06/02 06:55:53;;;;;;;4.10;3.70;;;16.10;99.90;;;;;;5071962;28;20239;-68
2022/06/02 06:58:36;;;;;;;3.57;3.27;;;16.20;99.90;;;;;;5073567;28;20639;-69
2022/06/02 07:01:07;;;;;;;4.27;3.57;;;16.40;99.90;;;;;;5077137;28;20203;-69
2022/06/02 07:03:47;;;;;;;5.73;4.00;;;16.60;99.90;;;;;;5082222;28;20340;-69
2022/06/02 07:06:23;;;;;;;3.17;2.60;;;16.90;99.90;;;;;;5075771;28;20727;-69
2022/06/02 07:08:56;;;;;;;4.43;2.67;;;17.10;99.90;;;;;;5077662;28;20232;-71
2022/06/02 07:14:23;;;;;;;2.30;2.03;;;17.50;99.90;;;;;;5075855;28;20574;-73
2022/06/02 07:16:55;;;;;;;2.67;1.90;;;17.70;99.90;;;;;;5076736;28;20236;-72
2022/06/02 07:19:28;;;;;;;3.50;2.10;;;17.90;99.90;;;;;;5077853;28;20201;-73
2022/06/02 07:22:02;;;;;;;3.03;1.77;;;18.00;99.90;;;;;;5070064;28;20201;-72
2022/06/02 07:24:39;;;;;;;2.20;1.70;;;18.10;99.90;;;;;;5075822;28;20288;-71
2022/06/02 07:27:15;;;;;;;2.88;1.88;;;18.20;99.90;;;;;;5076005;28;20639;-73
2022/06/02 07:29:55;;;;;;;2.60;1.95;;;18.20;99.90;;;;;;5078822;28;20232;-71
2022/06/02 07:32:45;;;;;;;2.13;1.50;;;18.20;99.90;;;;;;5080434;28;20232;-72
2022/06/02 07:35:37;;;;;;;1.92;1.73;;;18.20;99.90;;;;;;5073084;28;20260;-71
2022/06/02 07:38:13;;;;;;;4.10;1.58;;;18.30;99.90;;;;;;5085810;28;20200;-71
2022/06/02 07:41:04;;;;;;;3.15;1.50;;;18.40;99.90;;;;;;5078963;28;20205;-70
2022/06/02 07:43:59;;;;;;;1.63;1.35;;;18.60;99.90;;;;;;5072646;28;20206;-72
2022/06/02 07:46:43;;;;;;;2.20;1.90;;;18.80;99.90;;;;;;5062268;28;20636;-71
2022/06/02 07:49:36;;;;;;;2.10;1.48;;;19.00;99.90;;;;;;5071397;28;20209;-69
2022/06/02 07:52:09;;;;;;;1.15;1.02;;;19.10;99.90;;;;;;5071668;28;20224;-69
2022/06/02 07:54:47;;;;;;;1.95;1.40;;;19.10;99.90;;;;;;5071658;28;20213;-69
2022/06/02 07:57:25;;;;;;;2.08;1.60;;;19.10;99.90;;;;;;5078562;28;20204;-73
2022/06/02 08:00:04;;;;;;;1.60;1.50;;;19.00;99.90;;;;;;5075167;28;20209;-69
2022/06/02 08:02:55;;;;;;;3.63;1.50;;;18.90;99.90;;;;;;5078615;28;20586;-70
2022/06/02 08:05:35;;;;;;;1.58;1.48;;;18.80;99.90;;;;;;5072593;28;20670;-70
2022/06/02 08:08:09;;;;;;;1.60;1.50;;;18.70;99.90;;;;;;5079860;28;20204;-69
2022/06/02 08:10:47;;;;;;;1.58;1.48;;;18.50;99.90;;;;;;5086168;28;20200;-69
2022/06/02 08:13:23;;;;;;;2.05;1.70;;;18.40;99.90;;;;;;5077747;28;20291;-71
2022/06/02 08:15:58;;;;;;;4.00;1.90;;;18.20;99.90;;;;;;5074162;28;20657;-70
2022/06/02 08:18:57;;;;;;;2.30;2.10;;;18.10;99.90;;;;;;5067809;28;20567;-70
2022/06/02 08:21:30;;;;;;;2.70;1.90;;;18.00;99.90;;;;;;5080788;28;20284;-71
2022/06/02 08:24:36;;;;;;;2.20;2.00;;;17.90;99.90;;;;;;5075775;28;20307;-68
2022/06/02 08:27:25;;;;;;;2.95;2.00;;;17.80;99.90;;;;;;5083198;28;20209;-71
2022/06/02 08:30:06;;;;;;;2.30;2.10;;;17.70;99.90;;;;;;5070212;28;20221;-70
2022/06/02 08:33:00;;;;;;;2.30;2.03;;;17.70;99.90;;;;;;5078408;28;20204;-70
2022/06/02 08:35:29;;;;;;;3.40;1.90;;;17.60;99.90;;;;;;5079651;28;20225;-71
2022/06/02 08:38:15;;;;;;;2.50;2.30;;;17.70;99.90;;;;;;5063703;28;20208;-71
2022/06/02 08:44:07;;;;;;;2.28;1.90;;;17.80;99.90;;;;;;5092949;28;20649;-71
2022/06/02 08:47:07;;;;;;;2.50;1.85;;;17.90;99.90;;;;;;5094960;28;20222;-72
2022/06/02 08:49:55;;;;;;;2.03;1.83;;;18.10;99.90;;;;;;5076047;28;20245;-70
2022/06/02 08:52:55;;;;;;;2.40;1.70;;;18.20;99.90;;;;;;5079057;28;20535;-69
2022/06/02 08:56:06;;;;;;;2.78;2.20;;;18.30;99.90;;;;;;5073211;28;20277;-71
2022/06/02 08:59:00;;;;;;;2.15;1.70;;;18.30;99.90;;;;;;5014276;28;20352;-71
2022/06/02 09:02:00;;;;;;;2.75;1.70;;;18.30;99.90;;;;;;5067913;28;20604;-69
2022/06/02 09:05:06;;;;;;;3.03;1.52;;;18.40;99.90;;;;;;5083967;28;20209;-70
2022/06/02 09:08:07;;;;;;;3.00;1.73;;;18.50;99.90;;;;;;5040651;28;20211;-71
2022/06/02 09:10:51;;;;;;;1.55;1.45;;;18.60;99.90;;;;;;5077654;28;20615;-69
2022/06/02 09:14:02;;;;;;;1.50;1.40;;;18.70;99.90;;;;;;5064635;28;20344;-70
2022/06/02 09:16:43;;;;;;;2.15;1.33;;;18.60;99.90;;;;;;5077147;28;20332;-71
2022/06/02 09:19:39;;;;;;;3.85;1.70;;;18.60;99.90;;;;;;5071050;28;20233;-69
2022/06/02 09:22:34;;;;;;;1.95;1.83;;;18.70;99.90;;;;;;5075691;28;20197;-69
2022/06/02 09:25:17;;;;;;;2.83;2.25;;;18.90;99.90;;;;;;5072339;28;20213;-69
2022/06/02 09:28:16;;;;;;;3.25;2.40;;;19.10;99.90;;;;;;5064686;28;20201;-70
2022/06/02 09:31:00;;;;;;;2.63;1.58;;;19.30;99.90;;;;;;5068722;28;20262;-69
2022/06/02 09:34:13;;;;;;;2.92;2.22;;;19.60;99.90;;;;;;5071212;28;20223;-69
2022/06/02 09:37:03;;;;;;;1.10;1.10;;;19.90;99.90;;;;;;5073617;28;20700;-70
2022/06/02 09:39:54;;;;;;;1.08;1.00;;;20.20;99.90;;;;;;5072036;28;20199;-69
2022/06/02 09:42:40;;;;;;;0.77;0.70;;;20.60;99.90;;;;;;5078346;28;20237;-70
2022/06/02 09:45:27;;;;;;;1.35;0.68;;;20.80;98.70;;;;;;5076601;28;20200;-69
2022/06/02 09:48:07;;;;;;;1.05;0.80;;;20.90;96.10;;;;;;5077475;28;20242;-72
2022/06/02 09:50:47;;;;;;;1.00;0.70;;;20.70;94.30;;;;;;5085023;28;20263;-69
2022/06/02 09:53:44;;;;;;;0.70;0.70;;;20.60;93.40;;;;;;5091907;28;20231;-69
2022/06/02 09:56:38;;;;;;;0.70;0.70;;;20.60;93.00;;;;;;5086000;28;20281;-69
2022/06/02 09:59:23;;;;;;;1.38;0.63;;;20.60;93.00;;;;;;5078784;28;20307;-70
2022/06/02 10:02:06;;;;;;;0.85;0.73;;;20.70;91.80;;;;;;5090864;28;20632;-70
2022/06/02 10:05:06;;;;;;;0.60;0.60;;;20.70;91.00;;;;;;5088844;28;20205;-70
2022/06/02 10:07:58;;;;;;;0.77;0.68;;;20.80;89.60;;;;;;5085538;28;20217;-70
2022/06/02 10:10:39;;;;;;;1.30;1.10;;;20.90;86.60;;;;;;5069586;28;20201;-69
2022/06/02 10:13:37;;;;;;;0.52;0.50;;;20.90;85.70;;;;;;5083102;28;20267;-69
2022/06/02 10:16:43;;;;;;;0.70;0.70;;;21.10;84.60;;;;;;5071903;28;20247;-69
2022/06/02 10:19:36;;;;;;;0.93;0.55;;;21.40;84.70;;;;;;5089846;28;20204;-69
2022/06/02 10:22:11;;;;;;;0.70;0.70;;;21.60;81.50;;;;;;5066075;28;20633;-70
2022/06/02 10:24:58;;;;;;;1.15;0.70;;;21.70;80.00;;;;;;5077073;28;20466;-70
2022/06/02 10:27:58;;;;;;;2.58;0.80;;;21.80;80.40;;;;;;5082061;28;20729;-72
2022/06/02 10:31:08;;;;;;;1.67;0.98;;;22.00;79.80;;;;;;5070053;28;20229;-74
2022/06/02 10:34:11;;;;;;;1.55;0.60;;;22.10;80.20;;;;;;5078762;28;20787;-73
2022/06/02 10:37:05;;;;;;;0.70;0.70;;;22.20;78.20;;;;;;5069275;28;20282;-70
2022/06/02 10:40:03;;;;;;;0.55;0.45;;;22.30;76.90;;;;;;5061085;28;20336;-71
2022/06/02 10:43:06;;;;;;;0.57;0.32;;;22.40;75.70;;;;;;5068579;28;20201;-70
2022/06/02 10:46:09;;;;;;;0.90;0.65;;;22.50;74.80;;;;;;5071472;28;20205;-70
2022/06/02 10:49:01;;;;;;;0.50;0.40;;;22.50;74.30;;;;;;5074973;28;20540;-69
2022/06/02 10:52:11;;;;;;;1.48;0.80;;;22.50;74.10;;;;;;5064724;28;20270;-69
2022/06/02 10:55:08;;;;;;;0.50;0.50;;;22.70;74.10;;;;;;5061209;28;20265;-69
2022/06/02 10:58:12;;;;;;;0.90;0.80;;;22.80;73.70;;;;;;5056523;28;20651;-69
2022/06/02 11:01:03;;;;;;;1.05;0.60;;;22.90;73.90;;;;;;5068504;28;20572;-73
2022/06/02 11:04:18;;;;;;;11.43;1.98;;;23.10;73.70;;;;;;5077465;28;20296;-71
2022/06/02 11:07:32;;;;;;;1.20;0.80;;;23.20;72.60;;;;;;5035445;28;20232;-71
2022/06/02 11:10:20;;;;;;;1.10;0.52;;;23.30;72.30;;;;;;5068034;28;20311;-72
2022/06/02 11:13:23;;;;;;;2.97;0.68;;;23.40;72.10;;;;;;5073955;28;20235;-70
2022/06/02 11:16:34;;;;;;;1.10;1.00;;;23.50;71.50;;;;;;5063330;28;20233;-71
2022/06/02 11:19:44;;;;;;;0.70;0.40;;;23.70;71.70;;;;;;5072802;28;20220;-67
2022/06/02 11:22:50;;;;;;;0.75;0.52;;;23.60;69.60;;;;;;5071150;28;20201;-69
2022/06/02 11:25:48;;;;;;;0.65;0.65;;;23.40;70.40;;;;;;5057791;28;20223;-68
2022/06/02 11:29:06;;;;;;;0.93;0.60;;;23.30;70.60;;;;;;5073120;28;20658;-67
2022/06/02 11:32:11;;;;;;;0.55;0.55;;;23.00;69.40;;;;;;5070751;28;20209;-68
2022/06/02 11:35:11;;;;;;;0.52;0.52;;;22.70;70.20;;;;;;5073900;28;20205;-68
2022/06/02 11:38:14;;;;;;;0.40;0.40;;;22.40;71.40;;;;;;5072960;28;20204;-69
2022/06/02 11:41:03;;;;;;;1.67;0.70;;;22.40;71.00;;;;;;5045028;28;20734;-69
2022/06/02 11:43:42;;;;;;;0.52;0.52;;;22.30;70.30;;;;;;5063561;28;20215;-68
2022/06/02 11:46:42;;;;;;;0.57;0.57;;;22.20;70.20;;;;;;5074010;28;20691;-67
2022/06/02 11:49:48;;;;;;;1.95;0.60;;;22.30;69.80;;;;;;5070738;28;20208;-69
2022/06/02 11:52:40;;;;;;;1.45;0.40;;;22.50;68.80;;;;;;5077676;28;20552;-68
2022/06/02 11:55:29;;;;;;;1.63;0.65;;;22.60;66.90;;;;;;5063021;28;20296;-68
2022/06/02 11:58:35;;;;;;;0.47;0.40;;;22.60;66.10;;;;;;5073656;28;20269;-68
2022/06/02 12:01:35;;;;;;;3.13;1.10;;;22.70;66.00;;;;;;5061287;28;20209;-70
2022/06/02 12:04:50;;;;;;;1.27;0.70;;;22.70;66.10;;;;;;5080480;28;20251;-70
2022/06/02 12:08:02;;;;;;;1.33;1.00;;;22.80;67.10;;;;;;5083426;28;20225;-70
2022/06/02 12:11:02;;;;;;;0.60;0.60;;;22.90;68.70;;;;;;5072138;28;20680;-70
2022/06/02 12:13:57;;;;;;;1.65;0.65;;;23.00;67.40;;;;;;5080331;28;20293;-70
2022/06/02 12:16:37;;;;;;;0.65;0.65;;;22.90;66.80;;;;;;5076916;28;20237;-70
2022/06/02 12:19:43;;;;;;;0.60;0.60;;;22.90;65.70;;;;;;5080472;28;20256;-70
2022/06/02 12:22:49;;;;;;;0.80;0.65;;;23.00;66.00;;;;;;5071485;28;20204;-69
2022/06/02 12:25:48;;;;;;;0.68;0.68;;;23.20;64.80;;;;;;5078931;28;20228;-70
2022/06/02 12:28:42;;;;;;;1.08;1.00;;;23.30;64.40;;;;;;5075470;28;20211;-70
2022/06/02 12:31:49;;;;;;;1.30;0.70;;;23.20;65.40;;;;;;5079964;28;20232;-71
2022/06/02 12:34:44;;;;;;;0.88;0.60;;;23.10;65.50;;;;;;5007261;28;20292;-70
2022/06/02 12:37:33;;;;;;;1.25;1.08;;;23.00;65.80;;;;;;5067316;28;20801;-70
2022/06/02 12:40:16;;;;;;;1.13;0.90;;;22.90;65.70;;;;;;5069301;28;20681;-70
2022/06/02 12:43:12;;;;;;;0.70;0.70;;;22.90;66.20;;;;;;5069137;28;20244;-71
2022/06/02 12:45:52;;;;;;;0.95;0.80;;;22.90;65.90;;;;;;5067417;28;20218;-69
2022/06/02 12:48:55;;;;;;;0.90;0.90;;;22.90;64.40;;;;;;5069069;28;20216;-70
2022/06/02 12:51:49;;;;;;;0.80;0.80;;;22.90;64.60;;;;;;5075723;28;20207;-70
2022/06/02 12:54:55;;;;;;;2.10;0.80;;;22.90;63.60;;;;;;5081317;28;20212;-69
2022/06/02 12:57:52;;;;;;;1.48;0.70;;;22.90;63.10;;;;;;5073078;28;20206;-69
2022/06/02 13:00:58;;;;;;;0.85;0.85;;;22.90;63.60;;;;;;5065146;28;20212;-70
2022/06/02 13:04:19;;;;;;;1.23;1.10;;;22.80;63.50;;;;;;5036736;28;20304;-69
2022/06/02 13:07:19;;;;;;;1.58;1.00;;;22.80;62.30;;;;;;5067346;28;20290;-68
2022/06/02 13:10:06;;;;;;;1.75;1.00;;;22.90;63.20;;;;;;5063287;28;20229;-69
2022/06/02 13:13:12;;;;;;;0.95;0.95;;;23.00;63.40;;;;;;5075165;28;20292;-69
2022/06/02 13:16:14;;;;;;;1.15;1.05;;;23.00;62.90;;;;;;5073464;28;20266;-70
2022/06/02 13:19:12;;;;;;;3.72;1.10;;;23.10;63.50;;;;;;5076568;28;20244;-70
2022/06/02 13:22:16;;;;;;;1.52;1.30;;;23.20;63.20;;;;;;5063159;28;20209;-69
2022/06/02 13:25:21;;;;;;;1.20;1.10;;;23.40;64.10;;;;;;4990090;28;20258;-70
2022/06/02 13:28:19;;;;;;;1.30;0.95;;;23.50;63.70;;;;;;4983652;28;20220;-70
2022/06/02 13:31:15;;;;;;;0.90;0.82;;;23.50;63.00;;;;;;5069111;28;21497;-69
2022/06/02 13:34:18;;;;;;;1.00;0.93;;;23.50;62.40;;;;;;5074279;28;20700;-70
2022/06/02 13:37:02;;;;;;;0.68;0.68;;;23.50;62.10;;;;;;5076714;28;20261;-69
2022/06/02 13:40:07;;;;;;;0.95;0.95;;;23.60;61.60;;;;;;5073239;28;20216;-69
2022/06/02 13:42:55;;;;;;;0.90;0.90;;;23.50;61.10;;;;;;5067826;28;20209;-69
2022/06/02 13:46:07;;;;;;;1.02;1.00;;;23.40;60.80;;;;;;5062265;28;20546;-68
2022/06/02 13:49:07;;;;;;;1.63;1.08;;;23.30;61.20;;;;;;5042257;28;20288;-69
2022/06/02 13:52:06;;;;;;;2.67;1.08;;;23.20;61.40;;;;;;5076008;28;20241;-70
2022/06/02 13:58:12;;;;;;;2.70;1.13;;;23.10;62.80;;;;;;5080416;28;20238;-70
2022/06/02 14:01:02;;;;;;;1.20;1.10;;;23.10;63.00;;;;;;5078539;28;20229;-69
2022/06/02 14:03:53;;;;;;;1.35;1.25;;;23.10;62.70;;;;;;5076295;28;20650;-69
2022/06/02 14:06:23;;;;;;;2.00;1.20;;;23.00;62.60;;;;;;5072135;28;20232;-69
2022/06/02 14:09:23;;;;;;;1.75;1.65;;;23.00;63.40;;;;;;5074730;28;20205;-72
2022/06/02 14:11:56;;;;;;;1.33;1.25;;;22.90;63.50;;;;;;5053725;28;20213;-69
2022/06/02 14:15:01;;;;;;;1.75;1.30;;;23.00;63.30;;;;;;5075482;28;20202;-69
2022/06/02 14:17:40;;;;;;;1.17;1.15;;;23.00;63.70;;;;;;5068899;28;20268;-71
2022/06/02 14:20:22;;;;;;;1.75;1.48;;;22.90;63.90;;;;;;5070644;28;20207;-68
2022/06/02 14:23:04;;;;;;;2.05;1.20;;;22.90;63.40;;;;;;5072854;28;20646;-72
2022/06/02 14:25:42;;;;;;;2.17;1.42;;;22.90;63.50;;;;;;5070728;28;20194;-72
2022/06/02 14:28:45;;;;;;;1.40;1.30;;;22.80;63.50;;;;;;5073618;28;20227;-70
2022/06/02 14:31:22;;;;;;;1.67;1.52;;;22.70;63.90;;;;;;5078901;28;20290;-70
2022/06/02 14:33:56;;;;;;;1.83;1.50;;;22.50;63.20;;;;;;5072298;28;20197;-71
2022/06/02 14:36:30;;;;;;;1.70;1.50;;;22.50;64.20;;;;;;5076062;28;20305;-74
2022/06/02 14:39:08;;;;;;;1.42;1.33;;;22.40;64.20;;;;;;5084191;28;20208;-72
2022/06/02 14:41:49;;;;;;;3.90;2.58;;;22.30;64.00;;;;;;5085427;28;20642;-72
2022/06/02 14:44:25;;;;;;;2.33;1.60;;;22.20;64.80;;;;;;5073699;28;20201;-69